Terminal Aerodrome Forecast
Issued by NWS St Louis, MO

Home | Current Version | Previous Version | Text Only | Print | Product List | Glossary On
Versions: 1 2 3 4 5 6 7 8 9 10 11 12 13 14 15 16 17 18 19 20 21 22
000
FTUS43 KLSX 172300
TAFCOU
TAF
KCOU 172320Z 1800/1824 07004KT 4SM BR OVC005
     FM180900 08005KT 1SM BR OVC003
     FM181600 09008KT P6SM BKN012
     FM182000 10007KT P6SM BKN030=

USA.gov is the U.S. government's official web portal to all federal, state and local government web resources and services.